createdAt,value
2022-11-30T00:00:41.504Z,29.17
2022-11-30T00:03:08.712Z,28.52
2022-11-30T00:05:42.391Z,28.92
2022-11-30T00:08:09.491Z,28.27
2022-11-30T00:10:45.458Z,27.73
2022-11-30T00:13:12.539Z,28.77
2022-11-30T00:15:46.557Z,28.33
2022-11-30T00:18:27.046Z,27.50
2022-11-30T00:21:00.570Z,26.73
2022-11-30T00:23:34.968Z,28.40
2022-11-30T00:26:11.766Z,29.05
2022-11-30T00:28:47.008Z,28.17
2022-11-30T00:31:25.278Z,27.20
2022-11-30T00:33:52.903Z,28.38
2022-11-30T00:36:30.580Z,30.27
2022-11-30T00:39:08.253Z,25.50
2022-11-30T00:41:41.359Z,27.38
2022-11-30T00:44:08.750Z,27.67
2022-11-30T00:46:42.684Z,25.73
2022-11-30T00:49:09.803Z,25.38
2022-11-30T00:51:43.444Z,26.10
2022-11-30T00:54:35.489Z,25.25
2022-11-30T00:57:07.552Z,24.48
2022-11-30T00:59:41.422Z,23.25
2022-11-30T01:02:15.491Z,22.10
2022-11-30T01:04:42.540Z,22.58
2022-11-30T01:07:16.545Z,22.17
2022-11-30T01:09:43.665Z,22.98
2022-11-30T01:12:24.728Z,20.92
2022-11-30T01:14:51.911Z,20.92
2022-11-30T01:17:19.159Z,20.50
2022-11-30T01:19:52.358Z,21.33
2022-11-30T01:22:25.495Z,20.17
2022-11-30T01:24:59.666Z,20.58
2022-11-30T01:27:33.497Z,21.20
2022-11-30T01:30:12.983Z,21.50
2022-11-30T01:32:40.035Z,21.55
2022-11-30T01:35:14.355Z,21.30
2022-11-30T01:37:41.553Z,20.45
2022-11-30T01:40:10.117Z,21.08
2022-11-30T01:42:43.345Z,21.77
2022-11-30T01:45:18.512Z,21.50
2022-11-30T01:47:49.153Z,20.95
2022-11-30T01:50:35.406Z,20.70
2022-11-30T01:53:09.468Z,19.60
2022-11-30T01:55:50.437Z,21.02
2022-11-30T01:58:30.491Z,22.13
2022-11-30T02:00:57.623Z,21.60
2022-11-30T02:04:08.348Z,22.65
2022-11-30T02:06:35.348Z,21.58
2022-11-30T02:09:08.460Z,21.08
2022-11-30T02:11:35.482Z,19.40
2022-11-30T02:14:35.388Z,19.90
2022-11-30T02:17:25.474Z,18.73
2022-11-30T02:20:29.377Z,18.30
2022-11-30T02:23:14.708Z,19.20
2022-11-30T02:26:06.404Z,19.27
2022-11-30T02:28:57.545Z,19.77
2022-11-30T02:32:16.381Z,19.38
2022-11-30T02:34:43.925Z,19.00
2022-11-30T02:37:18.367Z,20.23
2022-11-30T02:39:45.407Z,20.08
2022-11-30T02:42:20.435Z,18.95
2022-11-30T02:44:49.992Z,20.25
2022-11-30T02:47:43.381Z,19.35
2022-11-30T02:50:28.399Z,18.45
2022-11-30T02:52:55.379Z,19.52
2022-11-30T02:55:29.432Z,20.67
2022-11-30T02:57:56.525Z,19.63
2022-11-30T03:00:30.482Z,19.60
2022-11-30T03:02:57.526Z,18.35
2022-11-30T03:05:31.498Z,17.65
2022-11-30T03:07:58.469Z,19.05
2022-11-30T03:10:32.402Z,18.52
2022-11-30T03:13:00.075Z,18.90
2022-11-30T03:15:33.506Z,19.30
2022-11-30T03:18:04.328Z,18.80
2022-11-30T03:20:37.489Z,19.00
2022-11-30T03:23:04.520Z,18.70
2022-11-30T03:25:31.520Z,19.25
2022-11-30T03:28:07.457Z,19.45
2022-11-30T03:30:41.486Z,17.98
2022-11-30T03:33:08.486Z,19.08
2022-11-30T03:35:42.421Z,19.75
2022-11-30T03:38:15.572Z,18.27
2022-11-30T03:40:42.618Z,18.45
2022-11-30T03:43:09.706Z,19.60
2022-11-30T03:45:43.559Z,18.75
2022-11-30T03:48:10.536Z,17.70
2022-11-30T03:50:44.510Z,18.30
2022-11-30T03:53:18.402Z,17.92
2022-11-30T03:55:45.580Z,19.42
2022-11-30T03:58:12.863Z,18.38
2022-11-30T04:00:46.551Z,18.77
2022-11-30T04:03:20.506Z,17.38
2022-11-30T04:05:54.453Z,19.17
2022-11-30T04:08:28.545Z,18.42
2022-11-30T04:10:56.503Z,18.65
2022-11-30T04:13:23.812Z,19.02
2022-11-30T04:15:58.562Z,18.67
2022-11-30T04:18:27.166Z,18.20
2022-11-30T04:21:02.553Z,19.05
2022-11-30T04:23:32.608Z,18.05
2022-11-30T04:26:06.523Z,17.67
2022-11-30T04:28:33.818Z,17.98
2022-11-30T04:31:07.527Z,18.38
2022-11-30T04:33:41.553Z,18.30
2022-11-30T04:36:22.503Z,18.23
2022-11-30T04:38:56.462Z,18.95
2022-11-30T04:41:23.562Z,17.33
2022-11-30T04:43:50.652Z,17.60
2022-11-30T04:46:24.567Z,15.98
2022-11-30T04:48:58.598Z,17.52
2022-11-30T04:51:25.716Z,17.10
2022-11-30T04:53:59.567Z,16.20
2022-11-30T04:56:33.446Z,14.15
2022-11-30T04:59:02.117Z,15.13
2022-11-30T05:01:29.211Z,15.00
2022-11-30T05:04:02.544Z,14.13
2022-11-30T05:06:36.553Z,16.63
2022-11-30T05:09:10.502Z,16.00
2022-11-30T05:11:37.716Z,15.70
2022-11-30T05:14:11.531Z,15.50
2022-11-30T05:16:38.578Z,15.00
2022-11-30T05:19:12.664Z,14.40
2022-11-30T05:21:46.517Z,15.38
2022-11-30T05:24:20.541Z,15.48
2022-11-30T05:26:47.556Z,17.02
2022-11-30T05:29:21.480Z,16.83
2022-11-30T05:31:48.671Z,15.40
2022-11-30T05:34:22.842Z,14.68
2022-11-30T05:36:49.803Z,14.85
2022-11-30T05:39:16.999Z,15.32
2022-11-30T05:41:56.663Z,15.70
2022-11-30T05:44:23.728Z,14.93
2022-11-30T05:46:57.540Z,14.88
2022-11-30T05:49:24.475Z,15.13
2022-11-30T05:51:58.473Z,15.45
2022-11-30T05:54:25.623Z,14.70
2022-11-30T05:56:55.020Z,18.33
2022-11-30T05:59:29.538Z,18.10
2022-11-30T06:01:56.798Z,16.60
2022-11-30T06:04:30.490Z,19.83
2022-11-30T06:06:57.635Z,22.65
2022-11-30T06:09:31.500Z,20.85
2022-11-30T06:12:05.670Z,16.95
2022-11-30T06:14:32.703Z,16.95
2022-11-30T06:17:06.522Z,17.25
2022-11-30T06:19:33.462Z,17.25
2022-11-30T06:22:06.533Z,16.98
2022-11-30T06:24:33.578Z,15.88
2022-11-30T06:27:07.484Z,14.77
2022-11-30T06:29:34.515Z,14.70
2022-11-30T06:32:01.550Z,16.23
2022-11-30T06:34:38.539Z,16.10
2022-11-30T06:37:05.510Z,16.42
2022-11-30T06:40:04.831Z,15.07
2022-11-30T06:42:25.452Z,14.52
2022-11-30T06:44:58.533Z,14.48
2022-11-30T06:47:33.543Z,14.63
2022-11-30T06:50:07.456Z,14.27
2022-11-30T06:52:34.493Z,13.55
2022-11-30T06:55:07.538Z,13.75
2022-11-30T06:57:40.515Z,12.90
2022-11-30T07:00:08.416Z,12.32
2022-11-30T07:02:35.620Z,13.80
2022-11-30T07:05:09.467Z,12.88
2022-11-30T07:07:43.505Z,15.35
2022-11-30T07:10:20.230Z,18.02
2022-11-30T07:12:53.563Z,16.67
2022-11-30T07:15:20.489Z,15.38
2022-11-30T07:17:53.499Z,14.50
2022-11-30T07:20:26.534Z,13.15
2022-11-30T07:22:56.065Z,14.75
2022-11-30T07:25:29.573Z,14.15
2022-11-30T07:27:56.591Z,14.30
2022-11-30T07:30:29.560Z,15.57
2022-11-30T07:32:56.493Z,16.10
2022-11-30T07:35:23.491Z,16.50
2022-11-30T07:37:56.575Z,16.30
2022-11-30T07:40:30.576Z,15.48
2022-11-30T07:43:03.537Z,15.45
2022-11-30T07:45:30.604Z,14.77
2022-11-30T07:48:05.517Z,16.10
2022-11-30T07:50:32.552Z,17.02
2022-11-30T07:53:05.614Z,19.60
2022-11-30T07:55:32.597Z,20.48
2022-11-30T07:58:06.552Z,28.35
2022-11-30T08:00:33.456Z,34.92
2022-11-30T08:03:06.511Z,26.85
2022-11-30T08:05:33.467Z,23.20
2022-11-30T08:08:00.480Z,20.65
2022-11-30T08:10:33.525Z,20.17
2022-11-30T08:13:00.571Z,22.45
2022-11-30T08:15:33.938Z,23.58
2022-11-30T08:18:01.591Z,24.00
2022-11-30T08:20:35.550Z,21.52
2022-11-30T08:23:02.669Z,18.95
2022-11-30T08:25:36.561Z,19.70
2022-11-30T08:28:03.883Z,21.38
2022-11-30T08:30:32.680Z,22.45
2022-11-30T08:33:06.541Z,20.55
2022-11-30T08:35:33.521Z,19.48
2022-11-30T08:38:07.530Z,19.00
2022-11-30T08:40:34.508Z,19.17
2022-11-30T08:43:07.590Z,18.80
2022-11-30T08:45:34.594Z,16.90
2022-11-30T08:48:08.548Z,17.10
2022-11-30T08:50:35.454Z,14.82
2022-11-30T08:53:08.578Z,14.15
2022-11-30T08:55:35.492Z,15.18
2022-11-30T08:58:02.466Z,14.90
2022-11-30T09:00:35.549Z,13.85
2022-11-30T09:03:02.572Z,13.15
2022-11-30T09:05:42.627Z,12.45
2022-11-30T09:08:12.339Z,12.10
2022-11-30T09:10:48.061Z,11.95
2022-11-30T09:13:15.081Z,12.57
2022-11-30T09:15:48.638Z,12.15
2022-11-30T09:18:15.608Z,12.45
2022-11-30T09:20:42.538Z,12.80
2022-11-30T09:23:15.590Z,12.35
2022-11-30T09:25:42.568Z,13.02
2022-11-30T09:28:15.624Z,12.75
2022-11-30T09:30:42.576Z,13.13
2022-11-30T09:33:15.532Z,12.32
2022-11-30T09:35:42.485Z,12.02
2022-11-30T09:38:15.584Z,13.40
2022-11-30T09:40:42.601Z,12.13
2022-11-30T09:43:31.588Z,12.10
2022-11-30T09:46:01.000Z,10.65
2022-11-30T09:49:08.619Z,11.93
2022-11-30T09:51:49.313Z,12.13
2022-11-30T09:54:28.590Z,12.63
2022-11-30T09:56:55.529Z,12.60
2022-11-30T09:59:31.561Z,11.68
2022-11-30T10:02:01.060Z,11.60
2022-11-30T10:04:31.235Z,12.95
2022-11-30T10:07:34.624Z,13.52
2022-11-30T10:10:33.063Z,12.27
2022-11-30T10:13:38.728Z,12.00
2022-11-30T10:16:33.591Z,11.93
2022-11-30T10:19:47.898Z,12.18
2022-11-30T10:22:32.620Z,11.43
2022-11-30T10:25:12.147Z,12.23
2022-11-30T10:27:55.593Z,12.60
2022-11-30T10:30:24.431Z,12.88
2022-11-30T10:33:02.641Z,12.35
2022-11-30T10:36:10.610Z,13.57
2022-11-30T10:38:54.606Z,12.40
2022-11-30T10:41:35.509Z,13.20
2022-11-30T10:44:19.588Z,14.35
2022-11-30T10:46:58.134Z,14.75
2022-11-30T10:49:31.581Z,13.75
2022-11-30T10:52:03.021Z,13.48
2022-11-30T10:54:36.594Z,12.98
2022-11-30T10:57:04.459Z,12.68
2022-11-30T10:59:56.624Z,12.23
2022-11-30T11:02:51.616Z,12.13
2022-11-30T11:05:34.615Z,12.85
2022-11-30T11:08:22.411Z,13.35
2022-11-30T11:10:56.616Z,12.13
2022-11-30T11:13:40.682Z,11.23
2022-11-30T11:16:16.729Z,11.02
2022-11-30T11:18:57.303Z,10.70
2022-11-30T11:21:30.618Z,11.18
2022-11-30T11:23:57.684Z,11.52
2022-11-30T11:26:35.616Z,11.85
2022-11-30T11:29:08.624Z,12.18
2022-11-30T11:31:42.970Z,13.02
2022-11-30T11:34:40.576Z,12.20
2022-11-30T11:37:37.582Z,12.40
2022-11-30T11:40:19.594Z,11.68
2022-11-30T11:42:54.484Z,12.18
2022-11-30T11:45:33.651Z,12.73
2022-11-30T11:48:29.239Z,13.82
2022-11-30T11:51:16.681Z,13.95
2022-11-30T11:53:57.547Z,13.40
2022-11-30T11:56:35.596Z,13.30
2022-11-30T11:59:38.040Z,13.57
2022-11-30T12:02:14.713Z,14.80
2022-11-30T12:05:12.095Z,13.98
2022-11-30T12:08:09.633Z,15.15
2022-11-30T12:10:52.190Z,17.85
2022-11-30T12:13:46.648Z,17.65
2022-11-30T12:16:13.559Z,17.77
2022-11-30T12:19:23.617Z,17.58
2022-11-30T12:22:11.629Z,17.48
2022-11-30T12:25:27.683Z,17.27
2022-11-30T12:28:21.143Z,17.65
2022-11-30T12:31:20.708Z,19.17
2022-11-30T12:33:59.523Z,20.90
2022-11-30T12:36:55.627Z,19.13
2022-11-30T12:39:44.122Z,18.25
2022-11-30T12:42:43.737Z,18.50
2022-11-30T12:45:51.698Z,18.65
2022-11-30T12:48:43.716Z,17.02
2022-11-30T12:51:35.605Z,18.48
2022-11-30T12:54:48.797Z,15.95
2022-11-30T12:57:39.722Z,18.92
2022-11-30T13:00:30.717Z,17.02
2022-11-30T13:03:52.715Z,15.73
2022-11-30T13:06:51.721Z,14.15
2022-11-30T13:09:23.764Z,15.95
2022-11-30T13:12:02.717Z,16.65
2022-11-30T13:14:29.993Z,17.38
2022-11-30T13:17:08.778Z,17.92
2022-11-30T13:20:07.628Z,18.63
2022-11-30T13:23:29.213Z,17.45
2022-11-30T13:26:08.848Z,16.27
2022-11-30T13:28:48.705Z,21.95
2022-11-30T13:31:24.555Z,22.42
2022-11-30T13:34:00.685Z,20.50
2022-11-30T13:36:33.027Z,23.63
2022-11-30T13:39:21.675Z,23.00
2022-11-30T13:42:01.103Z,22.75
2022-11-30T13:44:41.720Z,19.38
2022-11-30T13:47:30.294Z,17.02
2022-11-30T13:50:12.683Z,17.92
2022-11-30T13:53:04.686Z,18.33
2022-11-30T13:55:43.249Z,18.00
2022-11-30T13:58:17.641Z,16.92
2022-11-30T14:01:05.747Z,17.20
2022-11-30T14:06:39.469Z,18.00
2022-11-30T14:09:41.683Z,18.77
2022-11-30T14:12:51.734Z,20.58
2022-11-30T14:16:02.754Z,19.98
2022-11-30T14:18:42.972Z,21.08
2022-11-30T14:21:40.736Z,20.27
2022-11-30T14:24:21.235Z,21.38
2022-11-30T14:26:56.751Z,20.52
2022-11-30T14:29:37.716Z,20.70
2022-11-30T14:32:25.730Z,23.15
2022-11-30T14:35:02.846Z,20.67
2022-11-30T14:37:33.759Z,20.58
2022-11-30T14:40:18.357Z,23.05
2022-11-30T14:43:00.514Z,25.45
2022-11-30T14:45:34.793Z,24.92
2022-11-30T14:48:06.186Z,24.63
2022-11-30T14:50:33.334Z,27.45
2022-11-30T14:53:18.798Z,29.02
2022-11-30T14:56:05.776Z,30.40
2022-11-30T14:58:53.273Z,31.20
2022-11-30T15:01:34.762Z,31.67
2022-11-30T15:04:16.163Z,31.13
2022-11-30T15:06:49.801Z,29.85
2022-11-30T15:09:19.215Z,32.33
2022-11-30T15:11:54.783Z,30.08
2022-11-30T15:14:21.781Z,31.65
2022-11-30T15:17:00.756Z,32.70
2022-11-30T15:19:30.288Z,31.58
2022-11-30T15:22:04.745Z,32.70
2022-11-30T15:24:31.619Z,31.90
2022-11-30T15:27:13.744Z,32.53
2022-11-30T15:29:47.089Z,30.13
2022-11-30T15:32:26.812Z,32.53
2022-11-30T15:34:58.624Z,30.10
2022-11-30T15:37:40.774Z,31.88
2022-11-30T15:40:15.765Z,28.88
2022-11-30T15:42:42.710Z,29.55
2022-11-30T15:45:33.836Z,28.40
2022-11-30T15:48:00.944Z,29.02
2022-11-30T15:50:34.784Z,28.83
2022-11-30T15:53:28.781Z,27.92
2022-11-30T15:55:58.861Z,27.13
2022-11-30T15:58:47.750Z,27.67
2022-11-30T16:01:22.009Z,28.05
2022-11-30T16:04:01.831Z,28.92
2022-11-30T16:06:43.765Z,28.10
2022-11-30T16:09:28.732Z,27.38
2022-11-30T16:11:55.870Z,29.27
2022-11-30T16:14:22.926Z,27.67
2022-11-30T16:16:56.748Z,28.25
2022-11-30T16:19:29.805Z,28.25
2022-11-30T16:21:56.681Z,30.70
2022-11-30T16:24:23.591Z,32.13
2022-11-30T16:26:56.752Z,31.13
2022-11-30T16:29:23.619Z,33.28
2022-11-30T16:31:56.845Z,32.20
2022-11-30T16:34:29.765Z,32.88
2022-11-30T16:36:56.709Z,33.60
2022-11-30T16:39:23.579Z,30.30
2022-11-30T16:41:56.792Z,31.77
2022-11-30T16:44:23.776Z,32.00
2022-11-30T16:46:56.796Z,33.28
2022-11-30T16:49:29.802Z,32.75
2022-11-30T16:51:56.716Z,32.55
2022-11-30T16:54:29.796Z,32.70
2022-11-30T16:56:56.696Z,30.17
2022-11-30T16:59:29.819Z,31.35
2022-11-30T17:01:56.808Z,30.45
2022-11-30T17:04:31.818Z,32.92
2022-11-30T17:07:02.531Z,31.98
2022-11-30T17:09:36.799Z,32.00
2022-11-30T17:12:04.519Z,31.95
2022-11-30T17:14:31.427Z,31.88
2022-11-30T17:17:04.893Z,33.78
2022-11-30T17:19:31.802Z,32.72
2022-11-30T17:22:04.826Z,30.80
2022-11-30T17:24:37.831Z,30.70
2022-11-30T17:27:10.822Z,31.90
2022-11-30T17:29:38.532Z,32.10
2022-11-30T17:32:11.829Z,31.67
2022-11-30T17:34:44.887Z,33.80
2022-11-30T17:37:18.818Z,32.35
2022-11-30T17:39:45.728Z,31.65
2022-11-30T17:42:12.681Z,35.55
2022-11-30T17:44:45.977Z,32.90
2022-11-30T17:47:13.125Z,33.85
2022-11-30T17:49:46.869Z,33.63
2022-11-30T17:52:13.766Z,33.75
2022-11-30T17:54:47.166Z,32.03
2022-11-30T17:57:20.825Z,31.95
2022-11-30T17:59:47.765Z,33.25
2022-11-30T18:02:20.887Z,34.05
2022-11-30T18:04:48.019Z,35.20
2022-11-30T18:07:21.843Z,34.05
2022-11-30T18:09:48.891Z,35.97
2022-11-30T18:12:22.829Z,31.98
2022-11-30T18:14:50.037Z,32.22
2022-11-30T18:17:23.867Z,30.95
2022-11-30T18:19:51.107Z,31.13
2022-11-30T18:22:24.838Z,29.90
2022-11-30T18:24:51.749Z,31.15
2022-11-30T18:27:18.632Z,30.20
2022-11-30T18:29:51.811Z,29.98
2022-11-30T18:32:25.853Z,30.67
2022-11-30T18:34:52.758Z,34.35
2022-11-30T18:37:25.923Z,33.55
2022-11-30T18:39:52.887Z,37.97
2022-11-30T18:42:25.920Z,77.20
2022-11-30T18:44:52.799Z,47.00
2022-11-30T18:47:25.883Z,35.90
2022-11-30T18:49:58.870Z,34.80
2022-11-30T18:52:25.798Z,35.10
2022-11-30T18:54:52.741Z,32.90
2022-11-30T18:57:25.876Z,33.10
2022-11-30T18:59:59.327Z,32.13
2022-11-30T19:02:32.930Z,31.60
2022-11-30T19:04:59.855Z,31.48
2022-11-30T19:07:26.808Z,30.60
2022-11-30T19:09:59.917Z,30.20
2022-11-30T19:12:26.829Z,28.75
2022-11-30T19:14:59.863Z,30.55
2022-11-30T19:17:26.878Z,30.27
2022-11-30T19:19:59.877Z,30.52
2022-11-30T19:22:26.827Z,31.00
2022-11-30T19:24:59.906Z,29.35
2022-11-30T19:27:27.102Z,30.00
2022-11-30T19:30:00.848Z,29.77
2022-11-30T19:32:34.911Z,29.55
2022-11-30T19:35:08.854Z,30.15
2022-11-30T19:37:35.775Z,30.38
2022-11-30T19:40:08.912Z,30.05
2022-11-30T19:42:35.897Z,30.17
2022-11-30T19:45:09.920Z,32.50
2022-11-30T19:47:37.063Z,31.00
2022-11-30T19:50:04.916Z,30.65
2022-11-30T19:52:37.930Z,29.17
2022-11-30T19:55:11.947Z,29.35
2022-11-30T19:57:45.884Z,29.73
2022-11-30T20:00:19.968Z,29.75
2022-11-30T20:02:53.973Z,31.52
2022-11-30T20:05:27.984Z,31.52
2022-11-30T20:07:55.136Z,30.30
2022-11-30T20:10:32.038Z,29.63
2022-11-30T20:12:59.272Z,30.38
2022-11-30T20:15:32.997Z,30.40
2022-11-30T20:18:08.533Z,32.42
2022-11-30T20:20:35.723Z,33.13
2022-11-30T20:23:02.704Z,32.92
2022-11-30T20:25:37.942Z,31.77
2022-11-30T20:28:12.649Z,28.58
2022-11-30T20:30:45.963Z,26.70
2022-11-30T20:33:12.967Z,25.77
2022-11-30T20:35:39.967Z,26.23
2022-11-30T20:38:13.938Z,24.40
2022-11-30T20:40:47.944Z,25.15
2022-11-30T20:43:21.871Z,22.42
2022-11-30T20:45:48.997Z,22.05
2022-11-30T20:48:22.958Z,23.42
2022-11-30T20:51:07.584Z,22.08
2022-11-30T20:53:42.884Z,23.92
2022-11-30T20:56:16.912Z,22.05
2022-11-30T20:58:50.915Z,24.10
2022-11-30T21:01:26.916Z,23.00
2022-11-30T21:04:00.066Z,23.05
2022-11-30T21:06:37.986Z,23.55
2022-11-30T21:09:05.200Z,23.95
2022-11-30T21:11:38.968Z,22.98
2022-11-30T21:14:14.081Z,24.65
2022-11-30T21:16:42.201Z,25.77
2022-11-30T21:19:09.251Z,27.52
2022-11-30T21:21:42.934Z,27.70
2022-11-30T21:24:11.355Z,26.85
2022-11-30T21:26:46.935Z,27.17
2022-11-30T21:29:16.460Z,30.25
2022-11-30T21:31:53.959Z,36.15
2022-11-30T21:34:27.998Z,34.75
2022-11-30T21:36:55.043Z,34.83
2022-11-30T21:39:31.138Z,35.42
2022-11-30T21:42:08.402Z,33.40
2022-11-30T21:44:39.308Z,32.78
2022-11-30T21:47:12.899Z,33.22
2022-11-30T21:49:39.852Z,32.50
2022-11-30T21:52:12.968Z,32.75
2022-11-30T21:54:39.891Z,34.55
2022-11-30T21:57:12.993Z,35.28
2022-11-30T21:59:46.301Z,35.03
2022-11-30T22:02:20.076Z,30.92
2022-11-30T22:04:59.916Z,26.92
2022-11-30T22:07:26.893Z,23.17
2022-11-30T22:10:02.188Z,21.60
2022-11-30T22:12:29.296Z,19.58
2022-11-30T22:15:02.918Z,20.70
2022-11-30T22:17:29.867Z,19.73
2022-11-30T22:20:02.996Z,20.67
2022-11-30T22:22:37.053Z,19.55
2022-11-30T22:25:04.369Z,20.27
2022-11-30T22:27:37.947Z,20.40
2022-11-30T22:30:11.984Z,21.95
2022-11-30T22:32:45.967Z,20.65
2022-11-30T22:35:13.015Z,21.75
2022-11-30T22:37:45.924Z,18.63
2022-11-30T22:40:13.646Z,18.38
2022-11-30T22:42:50.033Z,18.33
2022-11-30T22:45:24.130Z,19.25
2022-11-30T22:47:57.962Z,21.95
2022-11-30T22:50:31.016Z,22.98
2022-11-30T22:53:05.162Z,20.58
2022-11-30T22:55:41.572Z,18.60
2022-11-30T22:58:10.999Z,18.27
2022-11-30T23:00:45.926Z,18.48
2022-11-30T23:03:14.213Z,18.05
2022-11-30T23:05:48.429Z,18.52
2022-11-30T23:08:21.783Z,19.38
2022-11-30T23:10:54.931Z,16.52
2022-11-30T23:13:21.804Z,18.08
2022-11-30T23:15:48.824Z,16.88
2022-11-30T23:18:21.931Z,18.45
2022-11-30T23:20:48.868Z,16.50
2022-11-30T23:23:21.963Z,16.70
2022-11-30T23:25:56.008Z,17.60
2022-11-30T23:28:22.914Z,16.48
2022-11-30T23:30:49.810Z,16.73
2022-11-30T23:33:23.048Z,16.50
2022-11-30T23:35:49.962Z,16.67
2022-11-30T23:38:22.959Z,15.80
2022-11-30T23:40:55.979Z,16.55
2022-11-30T23:43:22.888Z,18.70
2022-11-30T23:45:49.901Z,19.90
2022-11-30T23:48:22.995Z,19.15
2022-11-30T23:50:49.971Z,20.13
2022-11-30T23:53:22.977Z,22.92
2022-11-30T23:55:56.955Z,22.52
2022-11-30T23:58:24.118Z,23.42
